sensor_id;sensor_type;location;lat;lon;timestamp;P1;durP1;ratioP1;P2;durP2;ratioP2
68806;SDS011;55800;54.272;18.558;2023-03-14T00:04:03;10.15;;;6.00;;
68806;SDS011;55800;54.272;18.558;2023-03-14T00:06:34;11.63;;;7.57;;
68806;SDS011;55800;54.272;18.558;2023-03-14T00:09:04;14.93;;;7.93;;
68806;SDS011;55800;54.272;18.558;2023-03-14T00:11:38;13.65;;;8.18;;
68806;SDS011;55800;54.272;18.558;2023-03-14T00:14:08;13.30;;;7.65;;
68806;SDS011;55800;54.272;18.558;2023-03-14T00:16:39;14.07;;;7.85;;
68806;SDS011;55800;54.272;18.558;2023-03-14T00:19:08;13.55;;;7.57;;
68806;SDS011;55800;54.272;18.558;2023-03-14T00:24:07;12.15;;;8.48;;
68806;SDS011;55800;54.272;18.558;2023-03-14T00:26:38;13.50;;;7.85;;
68806;SDS011;55800;54.272;18.558;2023-03-14T00:29:08;14.63;;;7.20;;
68806;SDS011;55800;54.272;18.558;2023-03-14T00:31:37;12.30;;;7.95;;
68806;SDS011;55800;54.272;18.558;2023-03-14T00:34:08;12.05;;;7.70;;
68806;SDS011;55800;54.272;18.558;2023-03-14T00:36:37;11.10;;;7.03;;
68806;SDS011;55800;54.272;18.558;2023-03-14T00:39:07;12.98;;;7.55;;
68806;SDS011;55800;54.272;18.558;2023-03-14T00:41:36;9.93;;;6.50;;
68806;SDS011;55800;54.272;18.558;2023-03-14T00:44:07;16.92;;;7.35;;
68806;SDS011;55800;54.272;18.558;2023-03-14T00:46:36;11.23;;;6.50;;
68806;SDS011;55800;54.272;18.558;2023-03-14T00:49:06;14.68;;;6.70;;
68806;SDS011;55800;54.272;18.558;2023-03-14T00:51:36;12.13;;;7.75;;
68806;SDS011;55800;54.272;18.558;2023-03-14T00:54:05;14.73;;;7.30;;
68806;SDS011;55800;54.272;18.558;2023-03-14T00:56:34;10.68;;;6.93;;
68806;SDS011;55800;54.272;18.558;2023-03-14T00:59:05;9.57;;;7.00;;
68806;SDS011;55800;54.272;18.558;2023-03-14T01:01:35;14.95;;;7.80;;
68806;SDS011;55800;54.272;18.558;2023-03-14T01:04:05;10.55;;;7.30;;
68806;SDS011;55800;54.272;18.558;2023-03-14T01:06:35;13.20;;;8.00;;
68806;SDS011;55800;54.272;18.558;2023-03-14T01:09:05;13.43;;;6.95;;
68806;SDS011;55800;54.272;18.558;2023-03-14T01:11:35;13.02;;;7.18;;
68806;SDS011;55800;54.272;18.558;2023-03-14T01:14:06;15.70;;;6.68;;
68806;SDS011;55800;54.272;18.558;2023-03-14T01:16:35;12.40;;;7.00;;
68806;SDS011;55800;54.272;18.558;2023-03-14T01:19:05;13.88;;;7.15;;
68806;SDS011;55800;54.272;18.558;2023-03-14T01:21:35;11.25;;;6.97;;
68806;SDS011;55800;54.272;18.558;2023-03-14T01:24:05;10.10;;;5.93;;
68806;SDS011;55800;54.272;18.558;2023-03-14T01:26:35;17.77;;;8.00;;
68806;SDS011;55800;54.272;18.558;2023-03-14T01:29:07;12.98;;;7.72;;
68806;SDS011;55800;54.272;18.558;2023-03-14T01:31:38;9.60;;;6.72;;
68806;SDS011;55800;54.272;18.558;2023-03-14T01:34:07;11.52;;;6.68;;
68806;SDS011;55800;54.272;18.558;2023-03-14T01:36:37;19.10;;;7.65;;
68806;SDS011;55800;54.272;18.558;2023-03-14T01:44:05;12.38;;;6.13;;
68806;SDS011;55800;54.272;18.558;2023-03-14T01:46:39;11.70;;;6.50;;
68806;SDS011;55800;54.272;18.558;2023-03-14T01:49:13;11.82;;;7.63;;
68806;SDS011;55800;54.272;18.558;2023-03-14T01:51:57;12.10;;;5.80;;
68806;SDS011;55800;54.272;18.558;2023-03-14T01:54:31;11.98;;;5.95;;
68806;SDS011;55800;54.272;18.558;2023-03-14T01:57:05;12.90;;;7.05;;
68806;SDS011;55800;54.272;18.558;2023-03-14T01:59:42;9.50;;;6.15;;
68806;SDS011;55800;54.272;18.558;2023-03-14T02:02:15;12.23;;;6.95;;
68806;SDS011;55800;54.272;18.558;2023-03-14T02:04:45;13.43;;;6.15;;
68806;SDS011;55800;54.272;18.558;2023-03-14T02:07:18;10.80;;;6.68;;
68806;SDS011;55800;54.272;18.558;2023-03-14T02:10:02;14.18;;;6.65;;
68806;SDS011;55800;54.272;18.558;2023-03-14T02:12:33;11.32;;;5.65;;
68806;SDS011;55800;54.272;18.558;2023-03-14T02:15:24;8.30;;;6.20;;
68806;SDS011;55800;54.272;18.558;2023-03-14T02:18:00;11.52;;;5.70;;
68806;SDS011;55800;54.272;18.558;2023-03-14T02:20:58;13.15;;;6.32;;
68806;SDS011;55800;54.272;18.558;2023-03-14T02:23:34;11.35;;;5.75;;
68806;SDS011;55800;54.272;18.558;2023-03-14T02:26:14;12.23;;;6.18;;
68806;SDS011;55800;54.272;18.558;2023-03-14T02:28:50;10.57;;;6.40;;
68806;SDS011;55800;54.272;18.558;2023-03-14T02:31:21;10.75;;;6.25;;
68806;SDS011;55800;54.272;18.558;2023-03-14T02:33:51;9.20;;;5.85;;
68806;SDS011;55800;54.272;18.558;2023-03-14T02:36:21;9.68;;;5.50;;
68806;SDS011;55800;54.272;18.558;2023-03-14T02:38:52;9.70;;;6.57;;
68806;SDS011;55800;54.272;18.558;2023-03-14T02:41:34;9.30;;;6.18;;
68806;SDS011;55800;54.272;18.558;2023-03-14T02:44:07;12.10;;;7.05;;
68806;SDS011;55800;54.272;18.558;2023-03-14T02:46:37;9.30;;;5.50;;
68806;SDS011;55800;54.272;18.558;2023-03-14T02:49:07;8.82;;;4.47;;
68806;SDS011;55800;54.272;18.558;2023-03-14T02:51:40;10.20;;;5.70;;
68806;SDS011;55800;54.272;18.558;2023-03-14T02:54:13;11.50;;;5.32;;
68806;SDS011;55800;54.272;18.558;2023-03-14T03:01:40;8.88;;;5.85;;
68806;SDS011;55800;54.272;18.558;2023-03-14T03:04:10;10.93;;;5.50;;
68806;SDS011;55800;54.272;18.558;2023-03-14T03:06:39;9.13;;;5.05;;
68806;SDS011;55800;54.272;18.558;2023-03-14T03:09:09;11.55;;;5.38;;
68806;SDS011;55800;54.272;18.558;2023-03-14T03:14:12;8.43;;;4.88;;
68806;SDS011;55800;54.272;18.558;2023-03-14T03:16:43;10.80;;;5.20;;
68806;SDS011;55800;54.272;18.558;2023-03-14T03:19:13;11.38;;;5.60;;
68806;SDS011;55800;54.272;18.558;2023-03-14T03:21:44;7.93;;;4.65;;
68806;SDS011;55800;54.272;18.558;2023-03-14T03:24:14;9.88;;;5.57;;
68806;SDS011;55800;54.272;18.558;2023-03-14T03:26:43;8.15;;;4.47;;
68806;SDS011;55800;54.272;18.558;2023-03-14T03:29:12;12.50;;;6.03;;
68806;SDS011;55800;54.272;18.558;2023-03-14T03:31:41;7.13;;;4.70;;
68806;SDS011;55800;54.272;18.558;2023-03-14T03:34:13;10.90;;;5.30;;
68806;SDS011;55800;54.272;18.558;2023-03-14T03:36:43;8.57;;;4.05;;
68806;SDS011;55800;54.272;18.558;2023-03-14T03:39:13;8.48;;;4.97;;
68806;SDS011;55800;54.272;18.558;2023-03-14T03:41:46;7.85;;;4.05;;
68806;SDS011;55800;54.272;18.558;2023-03-14T03:46:46;7.95;;;3.90;;
68806;SDS011;55800;54.272;18.558;2023-03-14T03:49:17;8.32;;;4.75;;
68806;SDS011;55800;54.272;18.558;2023-03-14T03:51:46;8.52;;;3.83;;
68806;SDS011;55800;54.272;18.558;2023-03-14T03:54:16;7.50;;;3.78;;
68806;SDS011;55800;54.272;18.558;2023-03-14T03:56:45;11.45;;;4.65;;
68806;SDS011;55800;54.272;18.558;2023-03-14T03:59:15;11.38;;;3.95;;
68806;SDS011;55800;54.272;18.558;2023-03-14T04:01:46;11.50;;;4.65;;
68806;SDS011;55800;54.272;18.558;2023-03-14T04:04:16;5.95;;;3.47;;
68806;SDS011;55800;54.272;18.558;2023-03-14T04:06:45;8.60;;;3.63;;
68806;SDS011;55800;54.272;18.558;2023-03-14T04:09:14;7.40;;;3.70;;
68806;SDS011;55800;54.272;18.558;2023-03-14T04:11:47;6.90;;;4.30;;
68806;SDS011;55800;54.272;18.558;2023-03-14T04:14:19;7.38;;;3.70;;
68806;SDS011;55800;54.272;18.558;2023-03-14T04:17:05;6.75;;;3.60;;
68806;SDS011;55800;54.272;18.558;2023-03-14T04:19:35;6.25;;;3.25;;
68806;SDS011;55800;54.272;18.558;2023-03-14T04:24:42;7.50;;;3.67;;
68806;SDS011;55800;54.272;18.558;2023-03-14T04:29:44;6.68;;;3.58;;
68806;SDS011;55800;54.272;18.558;2023-03-14T04:32:17;8.20;;;3.15;;
68806;SDS011;55800;54.272;18.558;2023-03-14T04:34:47;5.80;;;3.40;;
68806;SDS011;55800;54.272;18.558;2023-03-14T04:37:16;4.43;;;2.42;;
68806;SDS011;55800;54.272;18.558;2023-03-14T04:39:46;7.78;;;3.78;;
68806;SDS011;55800;54.272;18.558;2023-03-14T04:42:23;6.93;;;4.38;;
68806;SDS011;55800;54.272;18.558;2023-03-14T04:44:52;6.95;;;3.50;;
68806;SDS011;55800;54.272;18.558;2023-03-14T04:47:26;5.30;;;3.42;;
68806;SDS011;55800;54.272;18.558;2023-03-14T04:49:56;6.80;;;4.22;;
68806;SDS011;55800;54.272;18.558;2023-03-14T04:52:25;7.13;;;3.50;;
68806;SDS011;55800;54.272;18.558;2023-03-14T04:54:56;7.63;;;3.35;;
68806;SDS011;55800;54.272;18.558;2023-03-14T04:57:26;7.43;;;3.35;;
68806;SDS011;55800;54.272;18.558;2023-03-14T04:59:56;9.05;;;3.33;;
68806;SDS011;55800;54.272;18.558;2023-03-14T05:02:58;6.43;;;3.30;;
68806;SDS011;55800;54.272;18.558;2023-03-14T05:05:46;11.15;;;3.38;;
68806;SDS011;55800;54.272;18.558;2023-03-14T05:08:38;5.30;;;3.00;;
68806;SDS011;55800;54.272;18.558;2023-03-14T05:11:19;6.88;;;3.53;;
68806;SDS011;55800;54.272;18.558;2023-03-14T05:14:00;9.32;;;3.03;;
68806;SDS011;55800;54.272;18.558;2023-03-14T05:17:03;7.07;;;3.17;;
68806;SDS011;55800;54.272;18.558;2023-03-14T05:19:44;5.97;;;3.15;;
68806;SDS011;55800;54.272;18.558;2023-03-14T05:22:34;6.07;;;3.10;;
68806;SDS011;55800;54.272;18.558;2023-03-14T05:25:30;7.30;;;3.05;;
68806;SDS011;55800;54.272;18.558;2023-03-14T05:28:22;6.13;;;3.03;;
68806;SDS011;55800;54.272;18.558;2023-03-14T05:31:06;7.05;;;3.25;;
68806;SDS011;55800;54.272;18.558;2023-03-14T05:34:05;7.28;;;3.17;;
68806;SDS011;55800;54.272;18.558;2023-03-14T05:39:44;10.25;;;4.13;;
68806;SDS011;55800;54.272;18.558;2023-03-14T05:42:36;7.22;;;3.33;;
68806;SDS011;55800;54.272;18.558;2023-03-14T05:45:16;7.85;;;3.30;;
68806;SDS011;55800;54.272;18.558;2023-03-14T05:48:12;5.75;;;2.95;;
68806;SDS011;55800;54.272;18.558;2023-03-14T05:51:14;7.20;;;3.30;;
68806;SDS011;55800;54.272;18.558;2023-03-14T05:53:54;4.72;;;2.75;;
68806;SDS011;55800;54.272;18.558;2023-03-14T05:56:39;5.95;;;3.03;;
68806;SDS011;55800;54.272;18.558;2023-03-14T05:59:27;7.97;;;3.05;;
68806;SDS011;55800;54.272;18.558;2023-03-14T06:02:05;6.35;;;3.17;;
68806;SDS011;55800;54.272;18.558;2023-03-14T06:04:46;7.13;;;2.95;;
68806;SDS011;55800;54.272;18.558;2023-03-14T06:07:16;8.10;;;3.03;;
68806;SDS011;55800;54.272;18.558;2023-03-14T06:09:47;6.40;;;3.33;;
68806;SDS011;55800;54.272;18.558;2023-03-14T06:12:17;7.00;;;3.33;;
68806;SDS011;55800;54.272;18.558;2023-03-14T06:14:47;6.85;;;3.05;;
68806;SDS011;55800;54.272;18.558;2023-03-14T06:17:17;5.95;;;2.92;;
68806;SDS011;55800;54.272;18.558;2023-03-14T06:19:52;6.40;;;3.92;;
68806;SDS011;55800;54.272;18.558;2023-03-14T06:22:22;7.30;;;3.80;;
68806;SDS011;55800;54.272;18.558;2023-03-14T06:24:54;6.57;;;3.60;;
68806;SDS011;55800;54.272;18.558;2023-03-14T06:27:25;6.55;;;3.75;;
68806;SDS011;55800;54.272;18.558;2023-03-14T06:29:56;6.85;;;3.40;;
68806;SDS011;55800;54.272;18.558;2023-03-14T06:32:29;6.22;;;3.67;;
68806;SDS011;55800;54.272;18.558;2023-03-14T06:35:03;7.93;;;4.00;;
68806;SDS011;55800;54.272;18.558;2023-03-14T06:37:38;7.07;;;3.40;;
68806;SDS011;55800;54.272;18.558;2023-03-14T06:40:10;8.68;;;4.07;;
68806;SDS011;55800;54.272;18.558;2023-03-14T06:42:56;7.35;;;3.85;;
68806;SDS011;55800;54.272;18.558;2023-03-14T06:45:28;9.18;;;4.03;;
68806;SDS011;55800;54.272;18.558;2023-03-14T06:47:59;5.40;;;2.60;;
68806;SDS011;55800;54.272;18.558;2023-03-14T06:50:37;4.82;;;2.85;;
68806;SDS011;55800;54.272;18.558;2023-03-14T06:53:08;3.80;;;2.42;;
68806;SDS011;55800;54.272;18.558;2023-03-14T06:55:42;4.85;;;2.72;;
68806;SDS011;55800;54.272;18.558;2023-03-14T06:58:15;7.45;;;2.95;;
68806;SDS011;55800;54.272;18.558;2023-03-14T07:00:45;7.57;;;3.25;;
68806;SDS011;55800;54.272;18.558;2023-03-14T07:03:20;5.63;;;2.95;;
68806;SDS011;55800;54.272;18.558;2023-03-14T07:05:52;7.43;;;2.95;;
68806;SDS011;55800;54.272;18.558;2023-03-14T07:08:22;5.78;;;3.20;;
68806;SDS011;55800;54.272;18.558;2023-03-14T07:10:55;4.93;;;2.88;;
68806;SDS011;55800;54.272;18.558;2023-03-14T07:13:28;5.30;;;3.25;;
68806;SDS011;55800;54.272;18.558;2023-03-14T07:16:02;5.60;;;2.92;;
68806;SDS011;55800;54.272;18.558;2023-03-14T07:18:32;7.55;;;3.75;;
68806;SDS011;55800;54.272;18.558;2023-03-14T07:21:03;5.40;;;2.78;;
68806;SDS011;55800;54.272;18.558;2023-03-14T07:23:33;7.53;;;3.38;;
68806;SDS011;55800;54.272;18.558;2023-03-14T07:26:04;5.30;;;2.83;;
68806;SDS011;55800;54.272;18.558;2023-03-14T07:28:37;6.50;;;3.35;;
68806;SDS011;55800;54.272;18.558;2023-03-14T07:31:11;8.88;;;3.90;;
68806;SDS011;55800;54.272;18.558;2023-03-14T07:33:41;8.48;;;3.42;;
68806;SDS011;55800;54.272;18.558;2023-03-14T07:36:11;7.45;;;3.70;;
68806;SDS011;55800;54.272;18.558;2023-03-14T07:38:43;6.95;;;3.33;;
68806;SDS011;55800;54.272;18.558;2023-03-14T07:41:13;6.53;;;3.20;;
68806;SDS011;55800;54.272;18.558;2023-03-14T07:44:01;7.57;;;3.05;;
68806;SDS011;55800;54.272;18.558;2023-03-14T07:46:31;6.40;;;3.10;;
68806;SDS011;55800;54.272;18.558;2023-03-14T07:51:29;6.70;;;3.35;;
68806;SDS011;55800;54.272;18.558;2023-03-14T07:53:59;6.88;;;3.28;;
68806;SDS011;55800;54.272;18.558;2023-03-14T07:56:30;5.97;;;3.40;;
68806;SDS011;55800;54.272;18.558;2023-03-14T07:58:59;6.43;;;3.65;;
68806;SDS011;55800;54.272;18.558;2023-03-14T08:01:30;9.07;;;3.95;;
68806;SDS011;55800;54.272;18.558;2023-03-14T08:04:00;5.78;;;3.30;;
68806;SDS011;55800;54.272;18.558;2023-03-14T08:06:29;7.20;;;3.70;;
68806;SDS011;55800;54.272;18.558;2023-03-14T08:11:27;6.53;;;3.13;;
68806;SDS011;55800;54.272;18.558;2023-03-14T08:13:58;8.43;;;3.53;;
68806;SDS011;55800;54.272;18.558;2023-03-14T08:18:57;4.93;;;3.35;;
68806;SDS011;55800;54.272;18.558;2023-03-14T09:54:16;7.57;;;3.58;;
68806;SDS011;55800;54.272;18.558;2023-03-14T09:56:58;6.43;;;4.03;;
68806;SDS011;55800;54.272;18.558;2023-03-14T09:59:28;7.93;;;5.70;;
68806;SDS011;55800;54.272;18.558;2023-03-14T10:02:00;8.35;;;4.68;;
68806;SDS011;55800;54.272;18.558;2023-03-14T10:04:39;10.23;;;6.00;;
68806;SDS011;55800;54.272;18.558;2023-03-14T10:07:13;9.32;;;4.63;;
68806;SDS011;55800;54.272;18.558;2023-03-14T10:09:49;7.10;;;4.25;;
68806;SDS011;55800;54.272;18.558;2023-03-14T10:12:19;7.03;;;4.28;;
68806;SDS011;55800;54.272;18.558;2023-03-14T10:14:58;6.65;;;4.72;;
68806;SDS011;55800;54.272;18.558;2023-03-14T10:17:39;7.32;;;4.25;;
68806;SDS011;55800;54.272;18.558;2023-03-14T10:20:25;9.35;;;4.63;;
68806;SDS011;55800;54.272;18.558;2023-03-14T10:23:00;7.55;;;4.82;;
68806;SDS011;55800;54.272;18.558;2023-03-14T10:25:34;10.00;;;4.88;;
68806;SDS011;55800;54.272;18.558;2023-03-14T10:28:04;8.30;;;5.57;;
68806;SDS011;55800;54.272;18.558;2023-03-14T10:30:51;11.77;;;5.95;;
68806;SDS011;55800;54.272;18.558;2023-03-14T10:33:21;9.77;;;5.40;;
68806;SDS011;55800;54.272;18.558;2023-03-14T10:35:52;9.10;;;4.30;;
68806;SDS011;55800;54.272;18.558;2023-03-14T10:38:25;6.70;;;4.13;;
68806;SDS011;55800;54.272;18.558;2023-03-14T10:40:57;6.97;;;4.80;;
68806;SDS011;55800;54.272;18.558;2023-03-14T10:43:30;7.00;;;3.88;;
68806;SDS011;55800;54.272;18.558;2023-03-14T10:46:05;7.70;;;4.30;;
68806;SDS011;55800;54.272;18.558;2023-03-14T10:48:57;6.57;;;3.65;;
68806;SDS011;55800;54.272;18.558;2023-03-14T10:51:32;8.27;;;4.72;;
68806;SDS011;55800;54.272;18.558;2023-03-14T10:54:02;7.05;;;4.07;;
68806;SDS011;55800;54.272;18.558;2023-03-14T10:56:42;10.00;;;4.83;;
68806;SDS011;55800;54.272;18.558;2023-03-14T10:59:12;8.15;;;5.15;;
68806;SDS011;55800;54.272;18.558;2023-03-14T11:01:44;9.45;;;5.28;;
68806;SDS011;55800;54.272;18.558;2023-03-14T11:04:31;9.02;;;5.07;;
68806;SDS011;55800;54.272;18.558;2023-03-14T11:07:16;9.10;;;5.10;;
68806;SDS011;55800;54.272;18.558;2023-03-14T11:09:53;11.40;;;5.70;;
68806;SDS011;55800;54.272;18.558;2023-03-14T11:12:34;8.82;;;5.50;;
68806;SDS011;55800;54.272;18.558;2023-03-14T11:15:13;7.32;;;4.10;;
68806;SDS011;55800;54.272;18.558;2023-03-14T11:17:51;6.43;;;4.43;;
68806;SDS011;55800;54.272;18.558;2023-03-14T11:20:33;8.50;;;5.18;;
68806;SDS011;55800;54.272;18.558;2023-03-14T11:23:12;6.57;;;4.03;;
68806;SDS011;55800;54.272;18.558;2023-03-14T11:25:47;10.20;;;4.28;;
68806;SDS011;55800;54.272;18.558;2023-03-14T11:28:26;8.30;;;4.53;;
68806;SDS011;55800;54.272;18.558;2023-03-14T11:31:05;7.82;;;3.70;;
68806;SDS011;55800;54.272;18.558;2023-03-14T11:33:47;7.07;;;4.63;;
68806;SDS011;55800;54.272;18.558;2023-03-14T11:36:22;5.97;;;3.95;;
68806;SDS011;55800;54.272;18.558;2023-03-14T11:38:59;5.55;;;3.50;;
68806;SDS011;55800;54.272;18.558;2023-03-14T11:41:31;6.60;;;3.85;;
68806;SDS011;55800;54.272;18.558;2023-03-14T11:44:09;7.65;;;4.03;;
68806;SDS011;55800;54.272;18.558;2023-03-14T11:46:48;6.25;;;4.53;;
68806;SDS011;55800;54.272;18.558;2023-03-14T11:49:26;7.18;;;4.40;;
68806;SDS011;55800;54.272;18.558;2023-03-14T11:52:08;6.93;;;4.72;;
68806;SDS011;55800;54.272;18.558;2023-03-14T11:54:43;7.22;;;4.05;;
68806;SDS011;55800;54.272;18.558;2023-03-14T11:57:18;8.48;;;5.20;;
68806;SDS011;55800;54.272;18.558;2023-03-14T11:59:52;6.68;;;4.53;;
68806;SDS011;55800;54.272;18.558;2023-03-14T12:02:27;9.57;;;4.57;;
68806;SDS011;55800;54.272;18.558;2023-03-14T12:08:33;7.85;;;4.80;;
68806;SDS011;55800;54.272;18.558;2023-03-14T12:11:09;5.63;;;3.78;;
68806;SDS011;55800;54.272;18.558;2023-03-14T12:13:46;6.70;;;4.18;;
68806;SDS011;55800;54.272;18.558;2023-03-14T12:16:30;7.82;;;4.13;;
68806;SDS011;55800;54.272;18.558;2023-03-14T12:22:07;8.13;;;5.07;;
68806;SDS011;55800;54.272;18.558;2023-03-14T12:24:50;7.72;;;4.13;;
68806;SDS011;55800;54.272;18.558;2023-03-14T12:30:26;6.40;;;3.30;;
68806;SDS011;55800;54.272;18.558;2023-03-14T12:36:10;5.72;;;3.40;;
68806;SDS011;55800;54.272;18.558;2023-03-14T12:42:03;5.90;;;2.85;;
68806;SDS011;55800;54.272;18.558;2023-03-14T12:44:39;6.88;;;3.42;;
68806;SDS011;55800;54.272;18.558;2023-03-14T12:50:14;7.80;;;3.45;;
68806;SDS011;55800;54.272;18.558;2023-03-14T12:53:04;6.38;;;3.55;;
68806;SDS011;55800;54.272;18.558;2023-03-14T12:55:53;4.43;;;3.08;;
68806;SDS011;55800;54.272;18.558;2023-03-14T12:58:31;5.75;;;3.40;;
68806;SDS011;55800;54.272;18.558;2023-03-14T13:01:06;5.82;;;3.08;;
68806;SDS011;55800;54.272;18.558;2023-03-14T13:03:45;6.40;;;2.80;;
68806;SDS011;55800;54.272;18.558;2023-03-14T13:12:19;3.47;;;2.40;;
68806;SDS011;55800;54.272;18.558;2023-03-14T13:14:57;4.53;;;2.28;;
68806;SDS011;55800;54.272;18.558;2023-03-14T13:17:32;8.77;;;3.35;;
68806;SDS011;55800;54.272;18.558;2023-03-14T13:20:06;6.60;;;3.53;;
68806;SDS011;55800;54.272;18.558;2023-03-14T13:22:46;5.32;;;2.78;;
68806;SDS011;55800;54.272;18.558;2023-03-14T13:25:18;5.25;;;2.72;;
68806;SDS011;55800;54.272;18.558;2023-03-14T13:27:52;5.47;;;2.25;;
68806;SDS011;55800;54.272;18.558;2023-03-14T13:30:23;4.30;;;2.58;;
68806;SDS011;55800;54.272;18.558;2023-03-14T13:32:54;5.18;;;3.45;;
68806;SDS011;55800;54.272;18.558;2023-03-14T13:35:25;4.95;;;2.50;;
68806;SDS011;55800;54.272;18.558;2023-03-14T13:37:56;6.50;;;2.63;;
68806;SDS011;55800;54.272;18.558;2023-03-14T13:40:43;6.30;;;2.97;;
68806;SDS011;55800;54.272;18.558;2023-03-14T13:43:16;3.38;;;2.13;;
68806;SDS011;55800;54.272;18.558;2023-03-14T13:45:49;7.47;;;2.47;;
68806;SDS011;55800;54.272;18.558;2023-03-14T13:48:21;7.20;;;2.95;;
68806;SDS011;55800;54.272;18.558;2023-03-14T13:50:55;4.63;;;2.20;;
68806;SDS011;55800;54.272;18.558;2023-03-14T13:53:27;3.83;;;1.80;;
68806;SDS011;55800;54.272;18.558;2023-03-14T13:56:00;3.17;;;2.00;;
68806;SDS011;55800;54.272;18.558;2023-03-14T13:58:31;4.97;;;2.17;;
68806;SDS011;55800;54.272;18.558;2023-03-14T14:01:12;8.45;;;2.28;;
68806;SDS011;55800;54.272;18.558;2023-03-14T14:03:44;4.63;;;2.23;;
68806;SDS011;55800;54.272;18.558;2023-03-14T14:06:28;4.28;;;2.15;;
68806;SDS011;55800;54.272;18.558;2023-03-14T14:09:02;3.90;;;2.20;;
68806;SDS011;55800;54.272;18.558;2023-03-14T14:11:42;4.60;;;1.88;;
68806;SDS011;55800;54.272;18.558;2023-03-14T14:14:35;7.22;;;2.78;;
68806;SDS011;55800;54.272;18.558;2023-03-14T14:17:08;4.88;;;2.50;;
68806;SDS011;55800;54.272;18.558;2023-03-14T14:19:41;5.15;;;2.38;;
68806;SDS011;55800;54.272;18.558;2023-03-14T14:22:13;3.10;;;2.20;;
68806;SDS011;55800;54.272;18.558;2023-03-14T14:27:15;5.65;;;2.10;;
68806;SDS011;55800;54.272;18.558;2023-03-14T14:29:56;4.95;;;2.50;;
68806;SDS011;55800;54.272;18.558;2023-03-14T14:32:34;8.45;;;2.90;;
68806;SDS011;55800;54.272;18.558;2023-03-14T14:35:04;7.00;;;2.42;;
68806;SDS011;55800;54.272;18.558;2023-03-14T14:37:42;7.60;;;2.92;;
68806;SDS011;55800;54.272;18.558;2023-03-14T14:40:16;7.05;;;2.90;;
68806;SDS011;55800;54.272;18.558;2023-03-14T14:42:52;4.63;;;2.92;;
68806;SDS011;55800;54.272;18.558;2023-03-14T14:45:22;5.18;;;3.08;;
68806;SDS011;55800;54.272;18.558;2023-03-14T14:47:52;7.00;;;3.30;;
68806;SDS011;55800;54.272;18.558;2023-03-14T14:50:27;6.05;;;2.60;;
68806;SDS011;55800;54.272;18.558;2023-03-14T14:52:59;6.53;;;2.85;;
68806;SDS011;55800;54.272;18.558;2023-03-14T14:55:31;6.82;;;3.13;;
68806;SDS011;55800;54.272;18.558;2023-03-14T14:58:17;10.40;;;4.07;;
68806;SDS011;55800;54.272;18.558;2023-03-14T15:00:52;8.68;;;3.45;;
68806;SDS011;55800;54.272;18.558;2023-03-14T15:03:26;6.20;;;3.50;;
68806;SDS011;55800;54.272;18.558;2023-03-14T15:05:57;7.28;;;3.08;;
68806;SDS011;55800;54.272;18.558;2023-03-14T15:08:27;8.65;;;3.72;;
68806;SDS011;55800;54.272;18.558;2023-03-14T15:10:56;5.47;;;3.15;;
68806;SDS011;55800;54.272;18.558;2023-03-14T15:13:33;9.75;;;2.97;;
68806;SDS011;55800;54.272;18.558;2023-03-14T15:16:04;6.65;;;3.58;;
68806;SDS011;55800;54.272;18.558;2023-03-14T15:18:39;5.60;;;2.78;;
68806;SDS011;55800;54.272;18.558;2023-03-14T15:21:09;9.73;;;3.42;;
68806;SDS011;55800;54.272;18.558;2023-03-14T15:23:39;5.95;;;2.42;;
68806;SDS011;55800;54.272;18.558;2023-03-14T15:26:10;5.30;;;2.33;;
68806;SDS011;55800;54.272;18.558;2023-03-14T15:28:43;4.95;;;2.35;;
68806;SDS011;55800;54.272;18.558;2023-03-14T15:31:13;5.95;;;3.22;;
68806;SDS011;55800;54.272;18.558;2023-03-14T15:33:45;7.95;;;2.45;;
68806;SDS011;55800;54.272;18.558;2023-03-14T15:36:17;6.40;;;2.45;;
68806;SDS011;55800;54.272;18.558;2023-03-14T15:38:51;8.90;;;4.18;;
68806;SDS011;55800;54.272;18.558;2023-03-14T15:41:22;6.15;;;2.25;;
68806;SDS011;55800;54.272;18.558;2023-03-14T15:43:55;4.90;;;2.53;;
68806;SDS011;55800;54.272;18.558;2023-03-14T15:46:25;5.40;;;2.33;;
68806;SDS011;55800;54.272;18.558;2023-03-14T15:48:57;7.22;;;3.13;;
68806;SDS011;55800;54.272;18.558;2023-03-14T15:51:26;8.35;;;3.92;;
68806;SDS011;55800;54.272;18.558;2023-03-14T15:53:56;9.38;;;3.25;;
68806;SDS011;55800;54.272;18.558;2023-03-14T15:56:25;6.53;;;2.72;;
68806;SDS011;55800;54.272;18.558;2023-03-14T15:59:01;6.95;;;4.22;;
68806;SDS011;55800;54.272;18.558;2023-03-14T16:01:31;6.70;;;3.78;;
68806;SDS011;55800;54.272;18.558;2023-03-14T16:04:01;6.30;;;3.20;;
68806;SDS011;55800;54.272;18.558;2023-03-14T16:06:31;5.80;;;2.13;;
68806;SDS011;55800;54.272;18.558;2023-03-14T16:09:02;7.03;;;2.95;;
68806;SDS011;55800;54.272;18.558;2023-03-14T16:11:32;7.45;;;2.92;;
68806;SDS011;55800;54.272;18.558;2023-03-14T16:14:03;5.28;;;2.28;;
68806;SDS011;55800;54.272;18.558;2023-03-14T16:16:32;7.85;;;3.63;;
68806;SDS011;55800;54.272;18.558;2023-03-14T16:19:02;8.00;;;3.55;;
68806;SDS011;55800;54.272;18.558;2023-03-14T16:21:34;6.28;;;3.45;;
68806;SDS011;55800;54.272;18.558;2023-03-14T16:24:04;8.27;;;2.67;;
68806;SDS011;55800;54.272;18.558;2023-03-14T16:26:34;5.03;;;2.35;;
68806;SDS011;55800;54.272;18.558;2023-03-14T16:31:33;6.80;;;2.72;;
68806;SDS011;55800;54.272;18.558;2023-03-14T16:34:09;7.35;;;3.17;;
68806;SDS011;55800;54.272;18.558;2023-03-14T16:36:38;6.13;;;2.97;;
68806;SDS011;55800;54.272;18.558;2023-03-14T16:39:10;10.85;;;4.50;;
68806;SDS011;55800;54.272;18.558;2023-03-14T16:41:39;10.48;;;4.30;;
68806;SDS011;55800;54.272;18.558;2023-03-14T16:46:40;10.80;;;4.32;;
68806;SDS011;55800;54.272;18.558;2023-03-14T16:49:09;7.38;;;3.70;;
68806;SDS011;55800;54.272;18.558;2023-03-14T16:54:09;8.38;;;3.75;;
68806;SDS011;55800;54.272;18.558;2023-03-14T16:59:07;5.80;;;3.35;;
68806;SDS011;55800;54.272;18.558;2023-03-14T17:04:10;6.07;;;2.97;;
68806;SDS011;55800;54.272;18.558;2023-03-14T17:06:40;12.35;;;5.82;;
68806;SDS011;55800;54.272;18.558;2023-03-14T17:09:11;11.25;;;4.13;;
68806;SDS011;55800;54.272;18.558;2023-03-14T17:14:10;8.25;;;4.10;;
68806;SDS011;55800;54.272;18.558;2023-03-14T17:16:40;10.82;;;5.00;;
68806;SDS011;55800;54.272;18.558;2023-03-14T17:19:10;11.82;;;5.35;;
68806;SDS011;55800;54.272;18.558;2023-03-14T17:21:40;15.65;;;7.80;;
68806;SDS011;55800;54.272;18.558;2023-03-14T17:26:42;11.55;;;6.13;;
68806;SDS011;55800;54.272;18.558;2023-03-14T17:29:11;10.60;;;5.85;;
68806;SDS011;55800;54.272;18.558;2023-03-14T17:31:45;10.63;;;6.05;;
68806;SDS011;55800;54.272;18.558;2023-03-14T17:34:16;11.68;;;5.18;;
68806;SDS011;55800;54.272;18.558;2023-03-14T17:36:45;10.43;;;4.90;;
68806;SDS011;55800;54.272;18.558;2023-03-14T17:39:18;9.50;;;4.95;;
68806;SDS011;55800;54.272;18.558;2023-03-14T17:41:48;11.77;;;4.90;;
68806;SDS011;55800;54.272;18.558;2023-03-14T17:44:24;13.70;;;6.63;;
68806;SDS011;55800;54.272;18.558;2023-03-14T17:46:54;21.05;;;9.82;;
68806;SDS011;55800;54.272;18.558;2023-03-14T17:49:24;18.85;;;8.43;;
68806;SDS011;55800;54.272;18.558;2023-03-14T17:54:22;16.05;;;8.93;;
68806;SDS011;55800;54.272;18.558;2023-03-14T17:56:52;17.08;;;9.23;;
68806;SDS011;55800;54.272;18.558;2023-03-14T17:59:24;17.42;;;9.10;;
68806;SDS011;55800;54.272;18.558;2023-03-14T18:01:55;17.92;;;9.70;;
68806;SDS011;55800;54.272;18.558;2023-03-14T18:04:29;18.80;;;10.98;;
68806;SDS011;55800;54.272;18.558;2023-03-14T18:06:58;16.15;;;9.32;;